Time;durP1;ratioP1;P1;durP2;ratioP2;P2;SDS_P1;SDS_P2;PMS_P1;PMS_P2;Temp;Humidity;BMP_temperature;BMP_pressure;BME280_temperature;BME280_humidity;BME280_pressure;Samples;Min_cycle;Max_cycle;Signal;HPM_P1;HPM_P2
2024/03/30 00:00:46;;;;;;;8.60;6.40;;;10.40;99.90;;;;;;5011531;28;20025;-74
2024/03/30 00:03:12;;;;;;;10.75;6.68;;;10.40;99.90;;;;;;5011680;28;20046;-73
2024/03/30 00:05:37;;;;;;;10.93;6.85;;;10.40;99.90;;;;;;5010058;28;20042;-72
2024/03/30 00:08:03;;;;;;;9.18;6.35;;;10.40;99.90;;;;;;5011596;28;20033;-73
2024/03/30 00:10:29;;;;;;;10.38;7.18;;;10.40;99.90;;;;;;5011552;28;20031;-74
2024/03/30 00:12:56;;;;;;;9.10;6.32;;;10.30;99.90;;;;;;5011191;28;20066;-73
2024/03/30 00:15:22;;;;;;;8.95;7.13;;;10.30;99.90;;;;;;5011761;28;20025;-73
2024/03/30 00:17:47;;;;;;;10.55;6.72;;;10.40;99.90;;;;;;5011185;28;20022;-73
2024/03/30 00:20:13;;;;;;;9.43;7.00;;;10.40;99.90;;;;;;5015460;28;20022;-73
2024/03/30 00:22:40;;;;;;;8.90;6.90;;;10.40;99.90;;;;;;5014487;28;20114;-73
2024/03/30 00:25:06;;;;;;;8.82;6.47;;;10.40;99.90;;;;;;5015734;28;20065;-73
2024/03/30 00:27:32;;;;;;;8.80;6.95;;;10.30;99.90;;;;;;5014115;28;20026;-73
2024/03/30 00:30:00;;;;;;;9.63;6.75;;;10.30;99.90;;;;;;5015093;28;20086;-73
2024/03/30 00:32:26;;;;;;;10.52;6.65;;;10.30;99.90;;;;;;5013818;28;20387;-72
2024/03/30 00:34:51;;;;;;;9.80;7.13;;;10.30;99.90;;;;;;5014759;28;20030;-73
2024/03/30 00:37:17;;;;;;;9.55;6.85;;;10.30;99.90;;;;;;5015870;28;20030;-73
2024/03/30 00:39:42;;;;;;;9.55;6.82;;;10.30;99.90;;;;;;5015481;28;20026;-73
2024/03/30 00:42:08;;;;;;;10.70;6.55;;;10.30;99.90;;;;;;5014700;28;20040;-72
2024/03/30 00:44:33;;;;;;;13.38;7.15;;;10.30;99.90;;;;;;5014610;28;20085;-72
2024/03/30 00:46:59;;;;;;;10.13;7.68;;;10.30;99.90;;;;;;5015424;28;20038;-73
2024/03/30 00:49:25;;;;;;;11.13;7.57;;;10.30;99.90;;;;;;5013962;28;20084;-73
2024/03/30 00:51:50;;;;;;;10.32;7.45;;;10.30;99.90;;;;;;5013343;28;20079;-73
2024/03/30 00:54:16;;;;;;;11.98;7.38;;;10.30;99.90;;;;;;5013448;28;20043;-73
2024/03/30 00:56:41;;;;;;;12.52;7.68;;;10.30;99.90;;;;;;5014651;28;20029;-73
2024/03/30 00:59:08;;;;;;;12.70;7.95;;;10.20;99.90;;;;;;5015311;28;20050;-73
2024/03/30 01:01:33;;;;;;;10.88;7.60;;;10.30;99.90;;;;;;5013868;28;20042;-73
2024/03/30 01:04:00;;;;;;;11.60;7.57;;;10.30;99.90;;;;;;5012551;28;20042;-74
2024/03/30 01:06:26;;;;;;;10.38;7.25;;;10.30;99.90;;;;;;5014925;28;20045;-73
2024/03/30 01:08:52;;;;;;;10.25;6.80;;;10.30;99.90;;;;;;5013671;28;20392;-73
2024/03/30 01:11:17;;;;;;;9.70;6.90;;;10.30;99.90;;;;;;5014352;28;20022;-73
2024/03/30 01:13:43;;;;;;;9.35;6.32;;;10.30;99.90;;;;;;5014306;28;20022;-73
2024/03/30 01:16:10;;;;;;;9.52;7.00;;;10.30;99.90;;;;;;5014997;28;20030;-73
2024/03/30 01:18:37;;;;;;;9.13;7.05;;;10.30;99.90;;;;;;5013709;28;20023;-73
2024/03/30 01:21:03;;;;;;;9.65;6.45;;;10.30;99.90;;;;;;5012719;28;20604;-73
2024/03/30 01:23:29;;;;;;;11.38;6.35;;;10.30;99.90;;;;;;5013703;28;20036;-73
2024/03/30 01:25:57;;;;;;;12.23;6.88;;;10.30;99.90;;;;;;5013988;28;20042;-73
2024/03/30 01:28:27;;;;;;;11.88;6.82;;;10.20;99.90;;;;;;5013941;28;20025;-74
2024/03/30 01:30:53;;;;;;;9.00;6.38;;;10.20;99.90;;;;;;5012034;28;21685;-73
2024/03/30 01:33:19;;;;;;;8.68;6.53;;;10.20;99.90;;;;;;5014082;28;20034;-74
2024/03/30 01:35:44;;;;;;;8.05;6.32;;;10.20;99.90;;;;;;5013533;28;20021;-73
2024/03/30 01:38:10;;;;;;;10.98;6.88;;;10.20;99.90;;;;;;5013775;28;20105;-73
2024/03/30 01:40:38;;;;;;;9.45;6.20;;;10.20;99.90;;;;;;5013978;28;20077;-73
2024/03/30 01:43:04;;;;;;;7.20;5.85;;;10.20;99.90;;;;;;5012433;28;20033;-73
2024/03/30 01:45:42;;;;;;;8.90;6.78;;;10.20;99.90;;;;;;5012141;28;20038;-73
2024/03/30 01:48:10;;;;;;;8.95;6.47;;;10.20;99.90;;;;;;5014018;28;20022;-73
2024/03/30 01:50:40;;;;;;;9.45;6.78;;;10.20;99.90;;;;;;5013450;28;20450;-73
2024/03/30 01:53:08;;;;;;;8.43;6.38;;;10.20;99.90;;;;;;5013495;28;20090;-73
2024/03/30 01:55:36;;;;;;;10.23;7.28;;;10.20;99.90;;;;;;5014097;28;20022;-73
2024/03/30 01:58:03;;;;;;;8.60;6.70;;;10.20;99.90;;;;;;5014770;28;20030;-73
2024/03/30 02:00:31;;;;;;;8.23;6.72;;;10.20;99.90;;;;;;5012855;28;20052;-75
2024/03/30 02:02:58;;;;;;;8.20;6.78;;;10.20;99.90;;;;;;5013403;28;20125;-72
2024/03/30 02:05:24;;;;;;;10.18;6.95;;;10.20;99.90;;;;;;5012708;28;20034;-74
2024/03/30 02:07:50;;;;;;;8.52;6.72;;;10.20;99.90;;;;;;5013578;28;20030;-72
2024/03/30 02:10:15;;;;;;;10.63;7.03;;;10.20;99.90;;;;;;5011922;28;20101;-73
2024/03/30 02:12:42;;;;;;;14.15;7.82;;;10.30;99.90;;;;;;5013392;28;20034;-73
2024/03/30 02:15:08;;;;;;;11.48;7.18;;;10.20;99.90;;;;;;5011572;28;20084;-73
2024/03/30 02:17:35;;;;;;;11.48;7.65;;;10.30;99.90;;;;;;5013249;28;20061;-73
2024/03/30 02:20:02;;;;;;;14.45;7.53;;;10.20;99.90;;;;;;5012956;28;20121;-74
2024/03/30 02:22:28;;;;;;;14.25;7.75;;;10.30;99.90;;;;;;5013120;28;20080;-73
2024/03/30 02:24:53;;;;;;;11.23;7.80;;;10.20;99.90;;;;;;5012905;28;20027;-73
2024/03/30 02:27:19;;;;;;;13.38;7.60;;;10.20;99.90;;;;;;5011276;28;20041;-74
2024/03/30 02:29:59;;;;;;;9.93;6.65;;;10.20;99.90;;;;;;5011513;28;20026;-74
2024/03/30 02:32:25;;;;;;;12.55;7.47;;;10.20;99.90;;;;;;5013131;28;20030;-74
2024/03/30 02:34:51;;;;;;;12.48;7.45;;;10.20;99.90;;;;;;5011359;28;20065;-74
2024/03/30 02:37:18;;;;;;;9.55;6.72;;;10.20;99.90;;;;;;5011672;28;20025;-72
2024/03/30 02:39:43;;;;;;;10.32;6.47;;;10.20;99.90;;;;;;5012937;28;20113;-73
2024/03/30 02:42:09;;;;;;;11.02;7.13;;;10.20;99.90;;;;;;5012396;28;20027;-72
2024/03/30 02:44:35;;;;;;;9.13;6.45;;;10.20;99.90;;;;;;5012831;28;20481;-73
2024/03/30 02:47:00;;;;;;;9.40;6.45;;;10.20;99.90;;;;;;5012743;28;20045;-73
2024/03/30 02:49:26;;;;;;;10.50;6.80;;;10.20;99.90;;;;;;5014120;28;20021;-72
2024/03/30 02:51:51;;;;;;;7.30;6.10;;;10.10;99.90;;;;;;5014198;28;20037;-72
2024/03/30 02:54:17;;;;;;;9.35;6.72;;;10.20;99.90;;;;;;5011103;28;20038;-74
2024/03/30 02:56:43;;;;;;;10.85;6.80;;;10.10;99.90;;;;;;5012071;28;20022;-73
2024/03/30 02:59:08;;;;;;;11.93;7.32;;;10.20;99.90;;;;;;5011821;28;20026;-73
2024/03/30 03:01:36;;;;;;;11.27;6.55;;;10.20;99.90;;;;;;5012665;28;20457;-73
2024/03/30 03:04:03;;;;;;;8.95;6.85;;;10.10;99.90;;;;;;5011783;28;20042;-73
2024/03/30 03:06:30;;;;;;;9.13;6.75;;;10.10;99.90;;;;;;5010618;28;20033;-73
2024/03/30 03:08:56;;;;;;;9.50;7.07;;;10.10;99.90;;;;;;5011540;28;20061;-73
2024/03/30 03:11:22;;;;;;;8.93;6.65;;;10.10;99.90;;;;;;5010342;28;20030;-73
2024/03/30 03:13:47;;;;;;;8.98;6.80;;;10.10;99.90;;;;;;5011986;28;20025;-73
2024/03/30 03:16:13;;;;;;;11.93;6.55;;;10.00;99.90;;;;;;5012310;28;20033;-74
2024/03/30 03:18:39;;;;;;;10.13;6.75;;;10.10;99.90;;;;;;5010383;28;20041;-73
2024/03/30 03:21:05;;;;;;;10.40;7.07;;;10.10;99.90;;;;;;5010880;28;20033;-75
2024/03/30 03:23:31;;;;;;;8.48;6.65;;;10.00;99.90;;;;;;5010827;28;20026;-74
2024/03/30 03:25:57;;;;;;;13.25;6.97;;;10.00;99.90;;;;;;5009255;28;20122;-73
2024/03/30 03:28:23;;;;;;;9.25;7.00;;;10.00;99.90;;;;;;5010790;28;20052;-73
2024/03/30 03:30:48;;;;;;;10.82;7.38;;;10.00;99.90;;;;;;5012854;28;20038;-73
2024/03/30 03:33:14;;;;;;;10.27;7.43;;;10.00;99.90;;;;;;5011575;28;20084;-74
2024/03/30 03:35:39;;;;;;;13.40;8.07;;;10.00;99.90;;;;;;5011278;28;20057;-73
2024/03/30 03:38:06;;;;;;;9.50;6.95;;;10.00;99.90;;;;;;5010956;28;20101;-74
2024/03/30 03:40:32;;;;;;;10.57;7.18;;;10.00;99.90;;;;;;5012098;28;20116;-73
2024/03/30 03:42:57;;;;;;;14.50;7.13;;;10.00;99.90;;;;;;5010430;28;20061;-73
2024/03/30 03:45:23;;;;;;;11.43;7.63;;;10.00;99.90;;;;;;5012616;28;20069;-72
2024/03/30 03:47:49;;;;;;;11.18;7.07;;;10.00;99.90;;;;;;5011746;28;20065;-73
2024/03/30 03:50:15;;;;;;;11.57;6.93;;;10.00;99.90;;;;;;5011576;28;20046;-73
2024/03/30 03:52:40;;;;;;;9.20;7.03;;;10.00;99.90;;;;;;5012006;28;20533;-71
2024/03/30 03:55:06;;;;;;;12.20;7.15;;;10.00;99.90;;;;;;5014237;28;20093;-73
2024/03/30 03:57:32;;;;;;;10.38;7.25;;;10.10;99.90;;;;;;5016288;28;20042;-72
2024/03/30 03:59:58;;;;;;;11.20;6.70;;;10.00;99.90;;;;;;5014537;28;20029;-73
2024/03/30 04:02:23;;;;;;;8.65;6.47;;;10.00;99.90;;;;;;5015772;28;20022;-72
2024/03/30 04:04:52;;;;;;;9.02;6.72;;;10.10;99.90;;;;;;5013867;28;20413;-73
2024/03/30 04:07:21;;;;;;;10.25;6.70;;;10.00;99.90;;;;;;5015785;28;20065;-73
2024/03/30 04:09:50;;;;;;;9.93;6.55;;;10.10;99.90;;;;;;5015425;28;20026;-72
2024/03/30 04:12:16;;;;;;;10.27;6.45;;;10.10;99.90;;;;;;5015428;28;20096;-73
2024/03/30 04:14:42;;;;;;;9.73;6.80;;;10.10;99.90;;;;;;5015802;28;20030;-73
2024/03/30 04:17:07;;;;;;;9.43;6.95;;;10.10;99.90;;;;;;5013553;28;20060;-73
2024/03/30 04:19:33;;;;;;;9.57;6.80;;;10.10;99.90;;;;;;5015191;28;20149;-72
2024/03/30 04:22:01;;;;;;;10.63;7.38;;;10.00;99.90;;;;;;5015691;28;20095;-72
2024/03/30 04:24:27;;;;;;;9.07;6.65;;;10.00;99.90;;;;;;5016377;28;20041;-73
2024/03/30 04:26:53;;;;;;;10.55;7.25;;;10.00;99.90;;;;;;5015472;28;20041;-73
2024/03/30 04:29:18;;;;;;;9.75;6.82;;;10.00;99.90;;;;;;5015175;28;20466;-73
2024/03/30 04:31:44;;;;;;;12.43;7.38;;;10.00;99.90;;;;;;5014029;28;20022;-74
2024/03/30 04:34:09;;;;;;;10.02;7.10;;;10.00;99.90;;;;;;5015388;28;20030;-73
2024/03/30 04:36:35;;;;;;;9.65;7.15;;;10.00;99.90;;;;;;5015300;28;20054;-74
2024/03/30 04:39:00;;;;;;;13.93;7.25;;;10.00;99.90;;;;;;5013689;28;20117;-73
2024/03/30 04:41:26;;;;;;;11.23;6.70;;;10.00;99.90;;;;;;5014178;28;20038;-73
2024/03/30 04:43:52;;;;;;;10.20;6.97;;;10.00;99.90;;;;;;5014626;28;20041;-73
2024/03/30 04:46:17;;;;;;;9.52;6.35;;;10.00;99.90;;;;;;5014772;28;20092;-74
2024/03/30 04:48:45;;;;;;;8.93;6.63;;;10.00;99.90;;;;;;5013761;28;20018;-74
2024/03/30 04:51:10;;;;;;;10.57;7.13;;;10.00;99.90;;;;;;5013708;28;20037;-74
2024/03/30 04:53:36;;;;;;;10.18;7.03;;;10.00;99.90;;;;;;5014550;28;20023;-74
2024/03/30 04:56:03;;;;;;;12.52;6.68;;;10.00;99.90;;;;;;5015486;28;20061;-74
2024/03/30 04:58:32;;;;;;;8.82;6.53;;;10.00;99.90;;;;;;5015204;28;20040;-74
2024/03/30 05:01:06;;;;;;;10.57;6.85;;;9.90;99.90;;;;;;5013753;28;20061;-73
2024/03/30 05:03:32;;;;;;;10.90;7.32;;;9.90;99.90;;;;;;5012407;28;20054;-73
2024/03/30 05:05:59;;;;;;;12.05;7.47;;;9.90;99.90;;;;;;5013951;28;20065;-73
2024/03/30 05:08:25;;;;;;;10.77;7.28;;;9.90;99.90;;;;;;5014984;28;20022;-73
2024/03/30 05:10:52;;;;;;;10.88;7.15;;;9.90;99.90;;;;;;5012693;28;20093;-73
2024/03/30 05:13:21;;;;;;;9.60;6.85;;;9.80;99.90;;;;;;5013635;28;20434;-74
2024/03/30 05:15:48;;;;;;;9.38;6.78;;;9.80;99.90;;;;;;5015210;28;20502;-73
2024/03/30 05:18:14;;;;;;;12.18;7.53;;;9.80;99.90;;;;;;5012169;28;20049;-73
2024/03/30 05:20:50;;;;;;;11.60;7.78;;;9.80;99.90;;;;;;5012876;28;20018;-73
2024/03/30 05:23:22;;;;;;;14.52;8.35;;;9.70;99.90;;;;;;5014820;28;20065;-73
2024/03/30 05:25:49;;;;;;;11.27;7.78;;;9.80;99.90;;;;;;5011985;28;20026;-73
2024/03/30 05:28:18;;;;;;;12.93;8.07;;;9.70;99.90;;;;;;5014021;28;20110;-73
2024/03/30 05:30:46;;;;;;;12.45;8.10;;;9.80;99.90;;;;;;5014412;28;20109;-73
2024/03/30 05:33:12;;;;;;;14.07;7.35;;;9.80;99.90;;;;;;5013635;28;20483;-73
2024/03/30 05:35:38;;;;;;;12.23;8.20;;;9.80;99.90;;;;;;5013589;28;20049;-74
2024/03/30 05:38:04;;;;;;;13.80;8.35;;;9.80;99.90;;;;;;5014018;28;20061;-74
2024/03/30 05:40:32;;;;;;;11.23;7.65;;;9.80;99.90;;;;;;5014940;28;20093;-74
2024/03/30 05:42:58;;;;;;;12.07;7.95;;;9.80;99.90;;;;;;5011970;28;20026;-73
2024/03/30 05:45:24;;;;;;;10.60;7.47;;;9.80;99.90;;;;;;5014051;28;20057;-73
2024/03/30 05:47:49;;;;;;;11.13;7.90;;;9.80;99.90;;;;;;5013752;28;20081;-73
2024/03/30 05:50:15;;;;;;;11.73;8.00;;;9.80;99.90;;;;;;5012084;28;20029;-73
2024/03/30 05:52:41;;;;;;;13.18;8.35;;;9.90;99.90;;;;;;5013048;28;20030;-74
2024/03/30 05:55:09;;;;;;;11.80;8.18;;;9.80;99.90;;;;;;5015114;28;20085;-74
2024/03/30 05:57:35;;;;;;;14.35;8.80;;;9.80;99.90;;;;;;5014505;28;20072;-74
2024/03/30 06:00:01;;;;;;;13.23;8.65;;;9.80;99.90;;;;;;5014598;28;20021;-73
2024/03/30 06:02:26;;;;;;;10.30;7.85;;;9.80;99.90;;;;;;5012480;28;20053;-73
2024/03/30 06:04:52;;;;;;;12.20;8.50;;;9.90;99.90;;;;;;5011831;28;20030;-73
2024/03/30 06:07:18;;;;;;;13.38;8.98;;;9.90;99.90;;;;;;5014460;28;20398;-74
2024/03/30 06:09:43;;;;;;;12.50;8.07;;;9.90;99.90;;;;;;5011880;28;20022;-73
2024/03/30 06:12:09;;;;;;;13.13;8.50;;;9.90;99.90;;;;;;5011289;28;20086;-73
2024/03/30 06:14:34;;;;;;;10.85;8.25;;;10.00;99.90;;;;;;5013455;28;20026;-73
2024/03/30 06:17:00;;;;;;;11.77;8.88;;;10.00;99.90;;;;;;5012714;28;20058;-73
2024/03/30 06:19:26;;;;;;;11.00;7.78;;;10.00;99.90;;;;;;5012007;28;20133;-73
2024/03/30 06:21:54;;;;;;;11.05;7.60;;;10.00;99.90;;;;;;5013583;28;20117;-73
2024/03/30 06:24:20;;;;;;;12.30;7.78;;;10.10;99.90;;;;;;5012747;28;20046;-74
2024/03/30 06:26:45;;;;;;;12.98;8.48;;;10.10;99.90;;;;;;5013038;28;20495;-74
2024/03/30 06:29:11;;;;;;;10.98;7.28;;;10.10;99.90;;;;;;5012670;28;20062;-73
2024/03/30 06:31:37;;;;;;;11.73;6.93;;;10.20;99.90;;;;;;5012497;28;20026;-74
2024/03/30 06:34:06;;;;;;;11.73;7.10;;;10.20;99.90;;;;;;5011410;28;20045;-73
2024/03/30 06:36:32;;;;;;;10.27;6.68;;;10.20;99.90;;;;;;5012357;28;20795;-73
2024/03/30 06:38:59;;;;;;;13.32;7.15;;;10.20;99.90;;;;;;5013660;28;20036;-74
2024/03/30 06:44:10;;;;;;;8.20;5.53;;;10.30;99.90;;;;;;5013372;28;20056;-73
2024/03/30 06:46:36;;;;;;;18.50;5.70;;;10.40;99.90;;;;;;5011753;28;20037;-73
2024/03/30 06:49:01;;;;;;;10.02;5.68;;;10.40;99.90;;;;;;5014994;28;20041;-74
2024/03/30 06:51:27;;;;;;;8.52;5.20;;;10.40;99.90;;;;;;5011343;28;20396;-73
2024/03/30 06:53:52;;;;;;;7.53;4.72;;;10.40;99.90;;;;;;5011597;28;20077;-73
2024/03/30 06:56:18;;;;;;;6.75;4.55;;;10.50;99.90;;;;;;5011913;28;20081;-73
2024/03/30 06:58:43;;;;;;;7.43;4.40;;;10.50;99.90;;;;;;5012278;28;20037;-73
2024/03/30 07:01:09;;;;;;;7.57;4.45;;;10.60;99.90;;;;;;5013121;28;20019;-74
2024/03/30 07:03:35;;;;;;;6.95;4.57;;;10.70;99.90;;;;;;5011380;28;20569;-74
2024/03/30 07:06:00;;;;;;;6.82;4.60;;;10.70;99.90;;;;;;5012151;28;20054;-74
2024/03/30 07:08:26;;;;;;;6.43;4.25;;;10.80;99.90;;;;;;5011876;28;20021;-74
2024/03/30 07:10:51;;;;;;;6.03;3.85;;;10.80;99.90;;;;;;5012479;28;20049;-73
2024/03/30 07:13:17;;;;;;;6.38;4.22;;;10.90;99.90;;;;;;5011978;28;20030;-74
2024/03/30 07:15:43;;;;;;;6.30;4.07;;;11.00;99.90;;;;;;5009321;28;20026;-74
2024/03/30 07:18:11;;;;;;;6.88;4.32;;;11.00;99.90;;;;;;5011584;28;20038;-75
2024/03/30 07:20:37;;;;;;;6.22;4.03;;;11.10;99.90;;;;;;5012206;28;20030;-73
2024/03/30 07:23:03;;;;;;;5.55;3.70;;;11.10;99.90;;;;;;5008389;28;20033;-72
2024/03/30 07:25:29;;;;;;;9.43;3.92;;;11.20;99.90;;;;;;5010996;28;20034;-75
2024/03/30 07:27:54;;;;;;;7.28;3.60;;;11.30;99.90;;;;;;5010809;28;20026;-72
2024/03/30 07:30:20;;;;;;;6.05;3.70;;;11.30;99.90;;;;;;5011690;28;20077;-74
2024/03/30 07:32:46;;;;;;;6.18;3.47;;;11.40;99.90;;;;;;5010789;28;20106;-73
2024/03/30 07:35:11;;;;;;;6.65;4.00;;;11.50;99.90;;;;;;5012009;28;20034;-73
2024/03/30 07:37:37;;;;;;;6.32;3.97;;;11.50;99.90;;;;;;5011127;28;20030;-75
2024/03/30 07:40:03;;;;;;;4.93;3.13;;;11.50;99.90;;;;;;5031823;28;20037;-75
2024/03/30 07:42:29;;;;;;;6.90;3.45;;;11.60;99.90;;;;;;5011516;28;20022;-73
2024/03/30 07:44:55;;;;;;;8.88;3.85;;;11.60;99.90;;;;;;5010236;28;20057;-73
2024/03/30 07:47:21;;;;;;;4.97;3.50;;;11.70;99.90;;;;;;5010493;28;20073;-74
2024/03/30 07:49:46;;;;;;;6.63;3.25;;;11.70;99.90;;;;;;5011076;28;20156;-74
2024/03/30 07:52:12;;;;;;;4.43;3.10;;;11.70;99.90;;;;;;5011981;28;20030;-74
2024/03/30 07:54:38;;;;;;;5.38;3.30;;;11.80;99.90;;;;;;5011001;28;20030;-74
2024/03/30 07:57:04;;;;;;;4.80;3.25;;;11.80;99.90;;;;;;5011940;28;20101;-74
2024/03/30 07:59:30;;;;;;;4.43;3.15;;;11.90;99.90;;;;;;5010267;28;20014;-75
2024/03/30 08:01:55;;;;;;;3.90;2.88;;;12.00;99.90;;;;;;5011919;28;20026;-72
2024/03/30 08:04:21;;;;;;;4.07;2.72;;;12.10;99.90;;;;;;5010153;28;20042;-73
2024/03/30 08:06:49;;;;;;;5.50;2.75;;;12.20;99.90;;;;;;5017272;28;20423;-73
2024/03/30 08:09:18;;;;;;;4.10;2.88;;;12.40;99.90;;;;;;5011384;28;20041;-72
2024/03/30 08:11:44;;;;;;;4.28;2.65;;;12.60;99.90;;;;;;5012581;28;20022;-72
2024/03/30 08:14:10;;;;;;;4.68;2.60;;;12.80;99.90;;;;;;5009379;28;20030;-73
2024/03/30 08:16:36;;;;;;;4.03;2.60;;;13.00;99.90;;;;;;5009857;28;20053;-73
2024/03/30 08:19:04;;;;;;;3.60;2.38;;;13.10;99.90;;;;;;5010247;28;20979;-73
2024/03/30 08:21:32;;;;;;;3.33;2.45;;;13.30;99.90;;;;;;5011423;28;20117;-75
2024/03/30 08:23:58;;;;;;;4.22;2.28;;;13.50;99.90;;;;;;5011750;28;20117;-72
2024/03/30 08:26:24;;;;;;;2.90;2.00;;;13.60;99.90;;;;;;5009229;28;20788;-74
2024/03/30 08:28:50;;;;;;;3.70;2.00;;;13.70;99.90;;;;;;5009025;28;20134;-72
2024/03/30 08:31:19;;;;;;;2.65;1.88;;;13.70;99.90;;;;;;5011190;28;20410;-73
2024/03/30 08:33:44;;;;;;;2.22;1.63;;;13.70;99.90;;;;;;5012188;28;20029;-72
2024/03/30 08:36:10;;;;;;;2.83;1.80;;;13.80;99.90;;;;;;5011921;28;20462;-73
2024/03/30 08:38:36;;;;;;;2.28;1.88;;;13.80;99.90;;;;;;5010985;28;20478;-73
2024/03/30 08:41:01;;;;;;;3.97;1.75;;;13.80;99.90;;;;;;5013785;28;20022;-72
2024/03/30 08:43:27;;;;;;;2.55;1.88;;;14.00;99.90;;;;;;5015515;28;20022;-74
2024/03/30 08:45:53;;;;;;;3.15;1.90;;;14.10;99.90;;;;;;5014814;28;20045;-75
2024/03/30 08:48:20;;;;;;;2.83;1.70;;;14.10;99.90;;;;;;5015448;28;20033;-75
2024/03/30 08:50:46;;;;;;;1.95;1.52;;;14.20;99.90;;;;;;5014712;28;20076;-71
2024/03/30 08:53:12;;;;;;;2.28;1.63;;;14.20;99.90;;;;;;5013167;28;20125;-73
2024/03/30 08:55:38;;;;;;;1.63;1.40;;;14.40;99.90;;;;;;5016620;28;20124;-73
2024/03/30 08:58:06;;;;;;;1.88;1.20;;;14.40;99.90;;;;;;5014106;28;20025;-76
2024/03/30 09:00:33;;;;;;;4.53;1.20;;;14.40;99.90;;;;;;5014147;28;20026;-73
2024/03/30 09:02:58;;;;;;;2.30;1.33;;;14.50;99.90;;;;;;5015105;28;20077;-73
2024/03/30 09:05:27;;;;;;;2.25;1.48;;;14.50;99.90;;;;;;5014594;28;20034;-73
2024/03/30 09:07:57;;;;;;;1.20;0.90;;;14.70;99.90;;;;;;5013960;28;20085;-73
2024/03/30 09:10:24;;;;;;;2.65;1.40;;;14.80;99.90;;;;;;5014285;28;20121;-72
2024/03/30 09:12:50;;;;;;;4.43;1.80;;;14.90;99.90;;;;;;5013735;28;20033;-72
2024/03/30 09:15:16;;;;;;;1.75;1.23;;;15.00;99.90;;;;;;5015836;28;20384;-72
2024/03/30 09:17:42;;;;;;;2.03;1.23;;;15.10;99.90;;;;;;5013509;28;20032;-72
2024/03/30 09:20:07;;;;;;;1.75;1.17;;;15.10;99.90;;;;;;5014009;28;20062;-73
2024/03/30 09:22:33;;;;;;;2.92;1.55;;;15.20;99.90;;;;;;5013447;28;20101;-73
2024/03/30 09:25:03;;;;;;;2.95;1.20;;;15.40;99.90;;;;;;5014257;28;20049;-73
2024/03/30 09:27:30;;;;;;;2.45;1.30;;;15.60;99.90;;;;;;5014071;28;20042;-75
2024/03/30 09:29:55;;;;;;;1.60;1.30;;;15.80;99.90;;;;;;5012433;28;20116;-74
2024/03/30 09:32:21;;;;;;;2.00;1.15;;;16.10;99.90;;;;;;5014723;28;20034;-75
2024/03/30 09:34:46;;;;;;;1.70;1.10;;;16.20;99.90;;;;;;5015701;28;20030;-75
2024/03/30 09:37:13;;;;;;;2.00;1.30;;;16.50;99.90;;;;;;5015658;28;20048;-76
2024/03/30 09:39:39;;;;;;;1.42;1.13;;;16.70;99.90;;;;;;5013880;28;20073;-73
2024/03/30 09:42:14;;;;;;;2.22;1.20;;;16.70;99.90;;;;;;5012358;28;20029;-73
2024/03/30 09:44:40;;;;;;;3.33;1.40;;;17.00;99.90;;;;;;5011509;28;20379;-73
2024/03/30 09:47:08;;;;;;;3.28;1.48;;;17.10;99.90;;;;;;5009545;28;20044;-73
2024/03/30 09:49:35;;;;;;;2.03;1.17;;;17.20;99.90;;;;;;5033331;28;20093;-74
2024/03/30 09:52:04;;;;;;;2.92;1.42;;;17.30;99.90;;;;;;5014330;28;20388;-77
2024/03/30 09:54:30;;;;;;;3.95;1.30;;;17.30;99.90;;;;;;5014225;28;20475;-75
2024/03/30 09:56:57;;;;;;;3.28;1.17;;;17.20;99.90;;;;;;5014501;28;20019;-73
2024/03/30 09:59:24;;;;;;;3.60;1.60;;;17.30;99.90;;;;;;5013923;28;20018;-73
2024/03/30 10:01:50;;;;;;;3.83;1.30;;;17.30;99.90;;;;;;5013607;28;20022;-73
2024/03/30 10:04:16;;;;;;;3.25;1.40;;;17.30;99.90;;;;;;5012548;28;20141;-73
2024/03/30 10:06:48;;;;;;;7.20;1.52;;;17.40;99.90;;;;;;5009353;28;20042;-75
2024/03/30 10:09:15;;;;;;;2.65;1.40;;;17.40;99.90;;;;;;5012377;28;20054;-74
2024/03/30 10:11:43;;;;;;;4.70;1.30;;;17.40;99.90;;;;;;5011925;28;20018;-75
2024/03/30 10:14:36;;;;;;;8.13;1.90;;;17.40;99.90;;;;;;5029679;28;20525;-74
2024/03/30 10:17:04;;;;;;;2.05;1.20;;;17.30;99.90;;;;;;5013617;28;20470;-75
2024/03/30 10:19:32;;;;;;;3.33;1.45;;;17.20;99.90;;;;;;5035854;28;20057;-74
2024/03/30 10:21:59;;;;;;;4.30;1.40;;;17.10;99.90;;;;;;5012645;28;20037;-73
2024/03/30 10:24:27;;;;;;;3.85;1.33;;;16.90;99.90;;;;;;5013716;28;20034;-76
2024/03/30 10:26:53;;;;;;;6.72;1.40;;;16.80;99.90;;;;;;5014049;28;20122;-73
2024/03/30 10:29:20;;;;;;;3.50;1.50;;;16.70;99.90;;;;;;5012903;28;20034;-73
2024/03/30 10:31:46;;;;;;;3.22;1.00;;;16.50;99.90;;;;;;5012393;28;20033;-74
2024/03/30 10:34:12;;;;;;;3.15;1.10;;;16.50;99.90;;;;;;5012872;28;20085;-77
2024/03/30 10:36:38;;;;;;;9.40;1.33;;;16.40;99.90;;;;;;5012948;28;21324;-72
2024/03/30 10:39:04;;;;;;;4.70;1.50;;;16.50;99.90;;;;;;5013285;28;20034;-73
2024/03/30 10:41:30;;;;;;;2.90;1.60;;;16.50;99.90;;;;;;5013513;28;20086;-75
2024/03/30 10:43:56;;;;;;;3.22;1.45;;;16.40;99.90;;;;;;5013738;28;20025;-76
2024/03/30 10:46:25;;;;;;;3.92;1.48;;;16.40;99.90;;;;;;5014894;28;20034;-73
2024/03/30 10:48:52;;;;;;;5.65;1.35;;;16.50;99.90;;;;;;5013063;28;20423;-73
2024/03/30 10:51:23;;;;;;;5.57;1.52;;;16.60;99.90;;;;;;5008873;28;20098;-75
2024/03/30 10:53:49;;;;;;;6.18;1.40;;;16.70;99.90;;;;;;5014011;28;20113;-72
2024/03/30 10:56:14;;;;;;;4.75;1.60;;;16.90;99.90;;;;;;5011298;28;20537;-73
2024/03/30 10:58:40;;;;;;;13.05;1.63;;;17.10;99.90;;;;;;5012752;28;20033;-72
2024/03/30 11:01:08;;;;;;;2.75;1.30;;;17.40;99.90;;;;;;5011248;28;20486;-73
2024/03/30 11:03:34;;;;;;;5.60;1.38;;;17.80;99.90;;;;;;5009110;28;20069;-72
2024/03/30 11:06:01;;;;;;;4.75;1.58;;;18.30;99.90;;;;;;5010851;28;20501;-74
2024/03/30 11:08:28;;;;;;;9.43;1.55;;;18.60;99.90;;;;;;5015406;28;20036;-73
2024/03/30 11:10:54;;;;;;;9.18;1.40;;;19.00;99.90;;;;;;5013027;28;20033;-72
2024/03/30 11:13:20;;;;;;;4.35;1.30;;;19.30;99.90;;;;;;5010477;28;20472;-72
2024/03/30 11:15:48;;;;;;;5.50;1.75;;;19.60;99.90;;;;;;5018393;28;20090;-73
2024/03/30 11:18:57;;;;;;;10.35;1.83;;;19.60;99.90;;;;;;5012138;28;20022;-73
2024/03/30 11:21:27;;;;;;;13.25;1.50;;;19.40;99.90;;;;;;5004256;28;20481;-74
2024/03/30 11:23:52;;;;;;;8.35;1.63;;;19.30;99.90;;;;;;5012789;28;20022;-73
2024/03/30 11:26:22;;;;;;;6.68;1.65;;;19.10;99.90;;;;;;5012166;28;20065;-76
2024/03/30 11:28:57;;;;;;;6.97;1.40;;;19.00;99.90;;;;;;5012537;28;20034;-74
2024/03/30 11:31:39;;;;;;;12.43;1.70;;;18.90;99.90;;;;;;5012990;28;20471;-72
2024/03/30 11:34:10;;;;;;;9.40;2.00;;;18.80;99.90;;;;;;5010030;28;20022;-74
2024/03/30 11:36:44;;;;;;;13.98;2.30;;;18.90;99.90;;;;;;5010732;28;20038;-72
2024/03/30 11:39:21;;;;;;;7.32;1.92;;;18.70;99.90;;;;;;5011570;28;20014;-73
2024/03/30 11:41:51;;;;;;;9.90;1.80;;;18.60;99.90;;;;;;5010658;28;20193;-74
2024/03/30 11:44:20;;;;;;;6.95;2.33;;;18.50;99.90;;;;;;5011689;28;20050;-73
2024/03/30 11:46:47;;;;;;;7.97;1.95;;;18.40;99.90;;;;;;5009834;28;20047;-75
2024/03/30 11:49:14;;;;;;;12.55;2.15;;;18.40;99.90;;;;;;5012163;28;20026;-74
2024/03/30 11:51:41;;;;;;;10.30;2.05;;;18.40;99.90;;;;;;5011085;28;20375;-76
2024/03/30 11:54:22;;;;;;;6.63;1.73;;;18.40;99.90;;;;;;5011853;28;20026;-74
2024/03/30 11:57:13;;;;;;;10.73;1.95;;;18.60;99.90;;;;;;5010920;28;20038;-75
2024/03/30 11:59:40;;;;;;;12.05;1.70;;;18.70;99.90;;;;;;5018168;28;20182;-74
2024/03/30 12:02:09;;;;;;;11.18;2.13;;;19.00;99.90;;;;;;5011920;28;20046;-74
2024/03/30 12:04:45;;;;;;;7.80;1.67;;;19.10;99.90;;;;;;5010536;28;20077;-73
2024/03/30 12:07:13;;;;;;;13.93;1.85;;;19.20;99.90;;;;;;5012434;28;20049;-74
2024/03/30 12:09:40;;;;;;;9.98;2.38;;;19.20;99.90;;;;;;5011548;28;20044;-74
2024/03/30 12:12:19;;;;;;;8.77;1.90;;;19.10;99.90;;;;;;5012570;28;20714;-74
2024/03/30 12:14:53;;;;;;;17.48;2.22;;;19.20;99.90;;;;;;5012840;28;20058;-75
2024/03/30 12:17:19;;;;;;;10.30;1.60;;;19.30;99.90;;;;;;5014798;28;20048;-74
2024/03/30 12:19:51;;;;;;;13.60;1.73;;;19.30;99.90;;;;;;5014467;28;20073;-74
2024/03/30 12:22:21;;;;;;;13.13;2.15;;;19.30;99.90;;;;;;5014861;28;20026;-72
2024/03/30 12:24:48;;;;;;;10.85;2.00;;;19.30;99.90;;;;;;5015947;28;20463;-73
2024/03/30 12:27:14;;;;;;;13.90;2.00;;;19.10;99.90;;;;;;5015327;28;20050;-74
2024/03/30 12:29:39;;;;;;;13.90;2.28;;;19.10;99.90;;;;;;5013723;28;20095;-73
2024/03/30 12:32:06;;;;;;;15.40;2.33;;;19.10;99.90;;;;;;5014423;28;20029;-75
2024/03/30 12:34:32;;;;;;;10.43;1.80;;;19.00;99.90;;;;;;5014346;28;20032;-74
2024/03/30 12:36:58;;;;;;;10.23;1.80;;;18.90;99.90;;;;;;5013469;28;20033;-74
2024/03/30 12:39:24;;;;;;;13.50;2.20;;;19.00;99.90;;;;;;5013859;28;20034;-72
2024/03/30 12:41:49;;;;;;;14.27;1.92;;;19.20;99.90;;;;;;5013949;28;20028;-74
2024/03/30 12:44:15;;;;;;;12.25;2.08;;;19.50;99.90;;;;;;5013828;28;20121;-73